createdAt,value
2018-05-24T11:08:33.893Z,28.40
2018-05-24T11:11:06.899Z,27.70
2018-05-24T11:13:35.394Z,27.70
2018-05-24T11:16:03.827Z,27.90
2018-05-24T11:18:33.039Z,28.00
2018-05-24T11:21:02.151Z,27.90
2018-05-24T11:23:30.631Z,27.80
2018-05-24T11:25:59.139Z,28.00
2018-05-24T11:28:28.021Z,27.00
2018-05-24T11:30:56.358Z,26.50
2018-05-24T11:33:25.655Z,26.30
2018-05-24T11:35:55.442Z,25.60
2018-05-24T11:38:23.991Z,25.60
2018-05-24T11:40:52.398Z,25.80
2018-05-24T11:43:20.944Z,26.10
2018-05-24T11:45:49.221Z,26.00
2018-05-24T11:48:17.843Z,25.40
2018-05-24T11:50:46.203Z,25.40
2018-05-24T11:53:14.679Z,25.30
2018-05-24T11:55:43.155Z,25.40
2018-05-24T11:58:11.782Z,25.40
2018-05-24T12:00:40.255Z,25.30
2018-05-24T12:03:08.845Z,25.50
2018-05-24T12:05:37.192Z,25.50
2018-05-24T12:08:05.974Z,25.80
2018-05-24T12:10:36.086Z,26.40
2018-05-24T12:13:04.569Z,26.40
2018-05-24T12:15:33.048Z,26.50
2018-05-24T12:18:02.353Z,26.30
2018-05-24T12:20:31.142Z,26.30
2018-05-24T12:22:59.465Z,26.20
2018-05-24T12:25:27.781Z,26.50
2018-05-24T12:27:56.274Z,26.90
2018-05-24T12:30:24.661Z,26.60
2018-05-24T12:32:53.241Z,26.80
2018-05-24T12:35:21.903Z,27.60
2018-05-24T12:37:50.504Z,28.50
2018-05-24T12:40:18.987Z,28.00
2018-05-24T12:42:47.771Z,28.50
2018-05-24T12:45:16.081Z,28.60
2018-05-24T12:47:44.537Z,28.60
2018-05-24T12:50:13.014Z,29.40
2018-05-24T12:52:41.553Z,29.90
2018-05-24T12:55:11.574Z,30.00
2018-05-24T12:57:40.139Z,30.00
2018-05-24T13:00:08.677Z,30.50
2018-05-24T13:02:36.981Z,31.30
2018-05-24T13:05:06.154Z,30.20
2018-05-24T13:07:34.629Z,30.70
2018-05-24T13:10:03.211Z,31.10
2018-05-24T13:12:31.697Z,31.00
2018-05-24T13:15:00.176Z,30.80
2018-05-24T13:17:28.586Z,31.00
2018-05-24T13:19:57.037Z,30.80
2018-05-24T13:22:25.931Z,31.70
2018-05-24T13:24:54.412Z,32.30
2018-05-24T13:27:22.892Z,31.80
2018-05-24T13:29:51.299Z,31.10
2018-05-24T13:32:19.791Z,31.10
2018-05-24T13:34:48.230Z,31.40
2018-05-24T13:37:16.709Z,30.90
2018-05-24T13:39:45.293Z,31.70
2018-05-24T13:42:13.776Z,31.80
2018-05-24T13:44:42.253Z,31.50
2018-05-24T13:47:10.774Z,29.90
2018-05-24T13:49:39.120Z,30.10
2018-05-24T13:52:07.418Z,29.70
2018-05-24T13:54:35.871Z,30.20
2018-05-24T13:57:04.361Z,31.00
2018-05-24T13:59:32.942Z,31.30
2018-05-24T14:02:01.282Z,31.50
2018-05-24T14:04:30.354Z,33.00
2018-05-24T14:07:00.271Z,33.10
2018-05-24T14:09:28.599Z,33.10
2018-05-24T14:11:57.078Z,33.30
2018-05-24T14:14:25.566Z,33.20
2018-05-24T14:16:54.041Z,33.50
2018-05-24T14:19:22.465Z,33.60
2018-05-24T14:21:51.208Z,33.20
2018-05-24T14:24:19.694Z,33.20
2018-05-24T14:26:48.121Z,33.10
2018-05-24T14:29:17.285Z,33.20
2018-05-24T14:31:45.935Z,33.20
2018-05-24T14:34:14.438Z,32.80
2018-05-24T14:36:42.915Z,32.80
2018-05-24T14:39:11.449Z,32.60
2018-05-24T14:41:40.692Z,31.80
2018-05-24T14:44:09.180Z,31.70
2018-05-24T14:46:37.654Z,31.40
2018-05-24T14:49:06.184Z,31.70
2018-05-24T14:51:35.501Z,31.90
2018-05-24T14:54:04.845Z,32.40
2018-05-24T14:56:33.374Z,32.40
2018-05-24T14:59:02.586Z,32.70
2018-05-24T15:01:31.098Z,32.70
2018-05-24T15:03:59.523Z,33.40
2018-05-24T15:06:27.960Z,33.60
2018-05-24T15:08:56.464Z,33.70
2018-05-24T15:11:25.031Z,33.20
2018-05-24T15:13:53.425Z,32.80
2018-05-24T15:16:21.881Z,32.80
2018-05-24T15:18:50.570Z,32.80
2018-05-24T15:21:19.011Z,32.70
2018-05-24T15:23:48.245Z,32.30
2018-05-24T15:26:16.665Z,32.30
2018-05-24T15:28:44.991Z,32.30
2018-05-24T15:31:13.386Z,32.20
2018-05-24T15:33:41.865Z,32.10
2018-05-24T15:36:10.354Z,32.20
2018-05-24T15:38:38.738Z,32.30
2018-05-24T15:41:07.203Z,32.50
2018-05-24T15:43:35.590Z,32.60
2018-05-24T15:46:04.177Z,32.40
2018-05-24T15:48:32.645Z,31.60
2018-05-24T15:51:01.227Z,31.40
2018-05-24T15:53:29.612Z,31.40
2018-05-24T15:55:58.196Z,31.60
2018-05-24T15:58:26.670Z,31.90
2018-05-24T16:00:55.151Z,32.20
2018-05-24T16:03:23.637Z,32.30
2018-05-24T16:05:52.791Z,31.90
2018-05-24T16:08:21.211Z,31.90
2018-05-24T16:10:49.625Z,31.90
2018-05-24T16:13:18.182Z,31.90
2018-05-24T16:15:46.661Z,32.00
2018-05-24T16:18:15.439Z,31.90
2018-05-24T16:20:43.822Z,31.60
2018-05-24T16:23:12.259Z,31.40
2018-05-24T16:25:41.501Z,31.70
2018-05-24T16:28:09.980Z,31.70
2018-05-24T16:30:38.517Z,31.60
2018-05-24T16:33:07.044Z,31.30
2018-05-24T16:35:35.486Z,31.20
2018-05-24T16:38:04.648Z,30.70
2018-05-24T16:40:33.106Z,30.70
2018-05-24T16:43:01.485Z,30.70
2018-05-24T16:45:29.910Z,30.50
2018-05-24T16:47:59.155Z,30.50
2018-05-24T16:50:27.637Z,30.50
2018-05-24T16:52:56.018Z,30.60
2018-05-24T16:55:24.469Z,30.60
2018-05-24T16:57:52.906Z,30.20
2018-05-24T17:00:21.467Z,30.00
2018-05-24T17:02:49.856Z,30.20
2018-05-24T17:05:18.353Z,29.50
2018-05-24T17:07:46.706Z,29.20
2018-05-24T17:10:15.121Z,28.60
2018-05-24T17:12:44.157Z,28.20
2018-05-24T17:15:12.657Z,27.90
2018-05-24T17:17:41.034Z,27.90
2018-05-24T17:20:09.615Z,27.90
2018-05-24T17:22:38.147Z,28.00
2018-05-24T17:25:07.502Z,28.40
2018-05-24T17:27:35.879Z,28.40
2018-05-24T17:30:04.470Z,28.10
2018-05-24T17:32:33.472Z,27.80
2018-05-24T17:35:01.985Z,27.10
2018-05-24T17:37:30.442Z,26.60
2018-05-24T17:39:58.941Z,26.30
2018-05-24T17:42:27.491Z,25.90
2018-05-24T17:44:56.141Z,25.60
2018-05-24T17:47:24.545Z,25.60
2018-05-24T17:49:52.965Z,26.10
2018-05-24T17:52:21.406Z,26.50
2018-05-24T17:54:49.883Z,26.70
2018-05-24T17:57:18.382Z,26.40
2018-05-24T17:59:46.763Z,26.40
2018-05-24T18:02:15.154Z,26.20
2018-05-24T18:04:43.704Z,25.90
2018-05-24T18:07:12.077Z,25.60
2018-05-24T18:09:41.547Z,25.30
2018-05-24T18:12:11.069Z,24.80
2018-05-24T18:14:39.392Z,24.80
2018-05-24T18:17:07.771Z,24.60
2018-05-24T18:19:36.163Z,24.50
2018-05-24T18:22:04.603Z,24.30
2018-05-24T18:24:33.310Z,24.10
2018-05-24T18:27:01.805Z,24.00
2018-05-24T18:29:30.258Z,23.90
2018-05-24T18:31:58.758Z,23.80
2018-05-24T18:34:27.983Z,23.50
2018-05-24T18:36:57.956Z,23.40
2018-05-24T18:39:26.954Z,23.40
2018-05-24T18:41:57.491Z,23.40
2018-05-24T18:44:25.869Z,23.30
2018-05-24T18:46:54.591Z,23.10
2018-05-24T18:49:24.083Z,22.90
2018-05-24T18:51:52.521Z,22.90
2018-05-24T18:54:21.125Z,22.80
2018-05-24T18:56:49.643Z,22.80
2018-05-24T18:59:18.494Z,22.70
2018-05-24T19:01:47.066Z,22.60
2018-05-24T19:04:16.155Z,22.50
2018-05-24T19:06:44.946Z,22.40
2018-05-24T19:09:13.436Z,22.30
2018-05-24T19:11:42.112Z,22.30
2018-05-24T19:14:10.795Z,22.20
2018-05-24T19:16:40.141Z,22.10
2018-05-24T19:19:09.993Z,22.00
2018-05-24T19:21:38.508Z,22.00
2018-05-24T19:24:06.973Z,21.90
2018-05-24T19:26:35.564Z,21.90
2018-05-24T19:29:04.042Z,21.80
2018-05-24T19:31:32.830Z,21.80
2018-05-24T19:34:01.257Z,21.90
2018-05-24T19:36:31.129Z,21.70
2018-05-24T19:38:59.527Z,21.70
2018-05-24T19:41:27.988Z,21.80
2018-05-24T19:43:56.461Z,21.70
2018-05-24T19:46:24.903Z,21.70
2018-05-24T19:48:54.672Z,21.70
2018-05-24T19:51:23.438Z,21.60
2018-05-24T19:53:51.917Z,21.70
2018-05-24T19:56:21.802Z,21.60
2018-05-24T19:58:50.452Z,21.60
2018-05-24T20:01:19.044Z,21.70
2018-05-24T20:03:47.686Z,21.60
2018-05-24T20:06:16.370Z,21.60
2018-05-24T20:08:44.810Z,21.50
2018-05-24T20:11:14.048Z,21.50
2018-05-24T20:13:42.481Z,21.50
2018-05-24T20:16:11.727Z,21.60
2018-05-24T20:18:40.264Z,21.60
2018-05-24T20:21:09.435Z,21.60
2018-05-24T20:23:37.886Z,21.50
2018-05-24T20:26:06.367Z,21.60
2018-05-24T20:28:34.887Z,21.50
2018-05-24T20:31:03.299Z,21.40
2018-05-24T20:33:32.831Z,21.40
2018-05-24T20:36:01.413Z,21.40
2018-05-24T20:38:29.821Z,21.40
2018-05-24T20:40:58.208Z,21.30
2018-05-24T20:43:26.860Z,21.30
2018-05-24T20:45:55.368Z,21.30
2018-05-24T20:48:23.874Z,21.20
2018-05-24T20:50:53.231Z,21.20
2018-05-24T20:53:21.706Z,21.10
2018-05-24T20:55:50.648Z,21.10
2018-05-24T20:58:20.668Z,21.10
2018-05-24T21:00:49.916Z,21.00
2018-05-24T21:03:19.213Z,21.10
2018-05-24T21:05:47.589Z,21.10
2018-05-24T21:08:16.137Z,21.10
2018-05-24T21:10:45.492Z,20.90
2018-05-24T21:13:14.012Z,20.90
2018-05-24T21:15:43.361Z,20.80
2018-05-24T21:18:11.940Z,20.80
2018-05-24T21:20:40.538Z,20.90
2018-05-24T21:23:09.536Z,20.90
2018-05-24T21:25:37.996Z,20.80
2018-05-24T21:28:06.482Z,20.70
2018-05-24T21:30:34.958Z,20.70
2018-05-24T21:33:03.369Z,20.70
2018-05-24T21:35:33.711Z,20.70
2018-05-24T21:38:02.877Z,20.80
2018-05-24T21:40:31.651Z,20.70
2018-05-24T21:43:00.131Z,20.70
2018-05-24T21:45:28.657Z,20.60
2018-05-24T21:47:57.848Z,20.50
2018-05-24T21:50:26.288Z,20.50
2018-05-24T21:52:55.795Z,20.30
2018-05-24T21:55:24.278Z,20.20
2018-05-24T21:57:52.760Z,20.10
2018-05-24T22:00:21.241Z,20.00
2018-05-24T22:02:50.030Z,19.90
2018-05-24T22:05:18.460Z,19.90
2018-05-24T22:07:47.806Z,19.70
2018-05-24T22:10:16.857Z,19.70
2018-05-24T22:12:46.099Z,19.70
2018-05-24T22:15:14.520Z,19.70
2018-05-24T22:17:44.721Z,19.60
2018-05-24T22:20:13.281Z,19.60
2018-05-24T22:22:41.646Z,19.60
2018-05-24T22:25:10.048Z,19.50
2018-05-24T22:27:38.690Z,19.50
2018-05-24T22:30:07.883Z,19.50
2018-05-24T22:32:38.247Z,19.40
2018-05-24T22:35:06.845Z,19.40
2018-05-24T22:37:35.232Z,19.50
2018-05-24T22:40:03.894Z,19.60
2018-05-24T22:42:35.239Z,19.80
2018-05-24T22:45:03.833Z,20.00
2018-05-24T22:47:35.087Z,20.20
2018-05-24T22:50:03.867Z,20.20
2018-05-24T22:52:32.293Z,20.20
2018-05-24T22:55:01.614Z,20.20
2018-05-24T22:57:30.841Z,20.20
2018-05-24T23:00:01.549Z,20.20
2018-05-24T23:02:31.723Z,20.20
2018-05-24T23:05:00.323Z,20.20
2018-05-24T23:07:29.737Z,20.20
2018-05-24T23:10:00.513Z,20.10
2018-05-24T23:12:30.527Z,20.00
2018-05-24T23:14:59.008Z,19.90
2018-05-24T23:17:27.750Z,19.90
2018-05-24T23:19:58.327Z,19.80
2018-05-24T23:22:37.968Z,19.80
2018-05-24T23:25:07.174Z,19.60
2018-05-24T23:27:35.870Z,19.50
2018-05-24T23:30:04.299Z,19.50
2018-05-24T23:32:33.448Z,19.30
2018-05-24T23:35:01.810Z,19.30
2018-05-24T23:37:30.238Z,19.20
2018-05-24T23:39:58.635Z,19.20
2018-05-24T23:42:27.835Z,19.00
2018-05-24T23:44:57.933Z,18.80
2018-05-24T23:47:27.066Z,18.80
2018-05-24T23:49:55.558Z,18.70
2018-05-24T23:52:23.948Z,18.60
2018-05-24T23:54:52.368Z,18.50
2018-05-24T23:57:20.694Z,18.40
2018-05-24T23:59:49.179Z,18.30
